Time;durP1;ratioP1;P1;durP2;ratioP2;P2;SDS_P1;SDS_P2;PMS_P1;PMS_P2;Temp;Humidity;BMP_temperature;BMP_pressure;BME280_temperature;BME280_humidity;BME280_pressure;Samples;Min_cycle;Max_cycle;Signal;HPM_P1;HPM_P2
2021/08/04 04:35:15;;;;;;;8.88;6.32;;;;;;;13.89;80.45;99876.72;5007063;28;106184;-69
2021/08/04 04:37:40;;;;;;;8.18;6.10;;;;;;;13.97;80.71;99875.69;5007413;27;105974;-72
2021/08/04 04:40:06;;;;;;;9.55;6.45;;;;;;;14.04;80.71;99879.25;5003981;28;105819;-67
2021/08/04 04:42:32;;;;;;;8.00;6.05;;;;;;;14.13;80.84;99880.69;5004861;28;106016;-68
2021/08/04 04:44:57;;;;;;;9.35;6.35;;;;;;;14.26;81.07;99876.44;5004780;28;109854;-68
2021/08/04 04:47:22;;;;;;;8.98;6.45;;;;;;;14.34;80.88;99881.59;5005934;28;106207;-68
2021/08/04 04:49:48;;;;;;;7.32;5.82;;;;;;;14.44;81.07;99881.22;5005621;28;105894;-68
2021/08/04 04:52:13;;;;;;;7.63;5.78;;;;;;;14.55;81.10;99880.59;5004747;28;106325;-68
2021/08/04 04:54:39;;;;;;;9.25;6.15;;;;;;;14.67;81.32;99886.22;5004945;28;106402;-68
2021/08/04 04:57:04;;;;;;;8.80;6.80;;;;;;;14.78;80.97;99887.47;5005731;28;105979;-68
2021/08/04 04:59:29;;;;;;;11.63;5.60;;;;;;;14.85;81.11;99891.78;5008694;28;106148;-68
2021/08/04 05:01:55;;;;;;;9.50;5.05;;;;;;;14.94;80.95;99886.22;5014021;28;106523;-67
2021/08/04 05:04:20;;;;;;;7.47;5.40;;;;;;;15.01;81.05;99893.25;5015749;28;106648;-67
2021/08/04 05:06:45;;;;;;;9.43;5.88;;;;;;;15.06;80.84;99895.28;5005467;28;106291;-68
2021/08/04 05:09:11;;;;;;;11.65;5.70;;;;;;;15.11;80.48;99898.19;5005812;28;106880;-68
2021/08/04 05:11:36;;;;;;;9.38;5.18;;;;;;;15.12;80.47;99899.84;4994485;28;107350;-68
2021/08/04 05:14:02;;;;;;;7.40;5.85;;;;;;;15.15;80.78;99896.75;4984739;28;106874;-67
2021/08/04 05:16:27;;;;;;;7.20;5.75;;;;;;;15.21;80.80;99898.63;4985645;28;106146;-68
2021/08/04 05:18:52;;;;;;;7.13;5.05;;;;;;;15.25;80.36;99898.19;4993014;28;106216;-68
2021/08/04 05:21:18;;;;;;;7.40;5.03;;;;;;;15.29;80.57;99899.41;4999491;28;106011;-68
2021/08/04 05:23:43;;;;;;;8.98;4.93;;;;;;;15.31;80.32;99891.97;5004625;28;105878;-68
2021/08/04 05:26:09;;;;;;;7.97;5.90;;;;;;;15.35;80.65;99894.06;4999667;28;105963;-68
2021/08/04 05:28:34;;;;;;;7.97;5.25;;;;;;;15.37;80.11;99900.00;4988465;28;106861;-68
2021/08/04 05:30:59;;;;;;;6.82;5.10;;;;;;;15.43;80.51;99900.22;4992813;28;105911;-68
2021/08/04 05:33:25;;;;;;;8.82;5.22;;;;;;;15.46;80.19;99899.78;4983994;28;106177;-68
2021/08/04 05:35:50;;;;;;;8.55;5.35;;;;;;;15.46;80.38;99892.59;5005214;28;105841;-68
2021/08/04 05:38:16;;;;;;;10.18;5.00;;;;;;;15.52;80.17;99893.59;5004576;28;105864;-68
2021/08/04 05:40:41;;;;;;;10.02;5.78;;;;;;;15.56;80.27;99892.16;5004371;28;106574;-68
2021/08/04 05:43:06;;;;;;;10.13;6.28;;;;;;;15.59;80.10;99894.41;5004512;28;106199;-66
2021/08/04 05:45:33;;;;;;;8.20;5.65;;;;;;;15.63;80.02;99884.06;4997727;28;106146;-66
2021/08/04 05:47:59;;;;;;;8.20;4.97;;;;;;;15.65;80.06;99884.69;4991273;28;106287;-67
2021/08/04 05:50:24;;;;;;;8.43;4.90;;;;;;;15.67;79.95;99886.13;4990787;28;105893;-67
2021/08/04 05:52:50;;;;;;;7.90;5.60;;;;;;;15.68;80.26;99887.78;4990566;28;105855;-67
2021/08/04 05:55:16;;;;;;;9.65;5.88;;;;;;;15.72;80.33;99896.25;4991568;28;105870;-69
2021/08/04 05:57:43;;;;;;;11.55;5.80;;;;;;;15.76;80.33;99897.47;4991155;28;106212;-67
2021/08/04 06:00:10;;;;;;;10.93;5.90;;;;;;;15.77;80.22;99896.41;4989109;28;106862;-67
2021/08/04 06:02:35;;;;;;;8.95;5.97;;;;;;;15.73;79.89;99887.13;5010276;28;106106;-66
2021/08/04 06:05:01;;;;;;;9.52;6.45;;;;;;;15.74;80.29;99892.28;5011475;28;105885;-67
2021/08/04 06:07:27;;;;;;;8.88;5.63;;;;;;;15.74;79.81;99902.22;5011027;28;106208;-66
2021/08/04 06:09:52;;;;;;;8.40;5.40;;;;;;;15.71;79.78;99913.38;4995259;28;105922;-70
2021/08/04 06:12:17;;;;;;;8.57;5.57;;;;;;;15.61;79.55;99910.28;5007205;28;115434;-71
2021/08/04 06:14:43;;;;;;;8.35;5.32;;;;;;;15.50;80.02;99904.56;5011071;28;105934;-66
2021/08/04 06:17:08;;;;;;;10.35;6.72;;;;;;;15.46;79.71;99903.31;5010385;28;106084;-65
2021/08/04 06:19:34;;;;;;;7.20;4.88;;;;;;;15.46;80.25;99907.84;5010375;28;105921;-69
2021/08/04 06:21:59;;;;;;;8.65;5.25;;;;;;;15.50;80.54;99896.50;5010264;28;105944;-66
2021/08/04 06:24:24;;;;;;;7.97;4.80;;;;;;;15.52;80.41;99897.09;5010944;28;105986;-66
2021/08/04 06:26:50;;;;;;;9.85;5.35;;;;;;;15.55;80.15;99894.03;5010428;28;106165;-66
2021/08/04 06:29:15;;;;;;;9.05;5.47;;;;;;;15.59;80.56;99894.41;5010224;28;108988;-65
2021/08/04 06:31:40;;;;;;;8.00;5.30;;;;;;;15.68;80.74;99901.19;5010248;28;106301;-66
2021/08/04 06:34:06;;;;;;;7.20;5.07;;;;;;;15.75;80.20;99893.13;5010802;28;106004;-69
2021/08/04 06:36:31;;;;;;;9.73;5.25;;;;;;;15.82;80.28;99907.38;5010844;28;106244;-66
2021/08/04 06:38:56;;;;;;;7.78;4.93;;;;;;;15.93;80.48;99902.41;5000202;28;105953;-65
2021/08/04 06:41:22;;;;;;;8.25;4.85;;;;;;;15.99;80.31;99909.59;4990074;28;105873;-65
2021/08/04 06:43:47;;;;;;;9.60;4.88;;;;;;;16.07;80.08;99912.03;4990899;28;106059;-68
2021/08/04 06:46:13;;;;;;;7.50;4.65;;;;;;;16.18;80.00;99913.25;4990529;28;106162;-66
2021/08/04 06:48:39;;;;;;;7.25;4.47;;;;;;;16.28;80.00;99918.16;4989126;28;106000;-67
2021/08/04 06:51:05;;;;;;;7.28;5.15;;;;;;;16.36;79.50;99928.66;4990115;28;105976;-67
2021/08/04 06:53:30;;;;;;;7.03;5.00;;;;;;;16.36;79.58;99929.50;4990606;28;106088;-65
2021/08/04 06:55:56;;;;;;;7.00;4.97;;;;;;;16.39;79.32;99925.56;4976744;28;105999;-66
2021/08/04 06:58:21;;;;;;;8.85;6.32;;;;;;;16.39;79.39;99931.75;4968968;28;105861;-67
2021/08/04 07:00:46;;;;;;;8.48;6.00;;;;;;;16.50;79.55;99932.13;4970055;28;105919;-66
2021/08/04 07:03:12;;;;;;;6.35;4.93;;;;;;;16.54;79.17;99930.66;4971038;28;106743;-65
2021/08/04 07:05:37;;;;;;;8.85;5.85;;;;;;;16.62;79.14;99934.91;4970287;28;106429;-68
2021/08/04 07:08:04;;;;;;;7.82;5.28;;;;;;;16.72;79.54;99935.28;4972051;28;106952;-71
2021/08/04 07:10:29;;;;;;;8.07;5.30;;;;;;;16.88;79.13;99934.75;4989034;28;106052;-70
2021/08/04 07:12:54;;;;;;;7.78;4.55;;;;;;;17.05;79.11;99936.94;4990392;28;105981;-72
2021/08/04 07:15:20;;;;;;;8.50;4.78;;;;;;;17.14;78.86;99941.00;4989624;28;106137;-69
2021/08/04 07:17:47;;;;;;;8.82;4.80;;;;;;;17.27;78.91;99936.56;4989107;28;105917;-66
2021/08/04 07:20:14;;;;;;;7.93;5.55;;;;;;;17.45;78.63;99935.78;4988877;28;105870;-65
2021/08/04 07:22:40;;;;;;;5.45;4.90;;;;;;;17.50;78.45;99944.81;4990125;28;106474;-70
2021/08/04 07:25:06;;;;;;;7.22;4.95;;;;;;;17.60;78.14;99936.22;4989539;28;106306;-67
2021/08/04 07:27:31;;;;;;;7.18;4.82;;;;;;;17.73;78.04;99938.78;4989437;28;105779;-67
2021/08/04 07:29:56;;;;;;;7.30;4.70;;;;;;;17.84;77.37;99939.94;4989197;28;105896;-70
2021/08/04 07:32:22;;;;;;;7.97;5.15;;;;;;;17.95;77.44;99938.38;4990152;28;105992;-66
2021/08/04 07:34:47;;;;;;;5.20;4.25;;;;;;;17.97;77.43;99941.66;4976672;28;106403;-69
2021/08/04 07:37:13;;;;;;;6.53;4.28;;;;;;;18.07;77.42;99941.13;4988567;28;106436;-65
2021/08/04 07:39:38;;;;;;;6.57;4.40;;;;;;;18.09;77.06;99939.84;4988499;28;106375;-64
2021/08/04 07:42:03;;;;;;;6.68;4.53;;;;;;;18.14;77.17;99941.06;4996667;28;106115;-66
2021/08/04 07:44:29;;;;;;;7.60;5.18;;;;;;;18.15;76.75;99942.69;4992077;28;106686;-65
2021/08/04 07:46:54;;;;;;;5.63;4.55;;;;;;;18.02;76.29;99943.69;4994037;28;106013;-68
2021/08/04 07:49:19;;;;;;;5.65;3.92;;;;;;;17.90;75.95;99952.47;4993857;28;105999;-64
2021/08/04 07:51:45;;;;;;;6.13;4.43;;;;;;;17.81;76.00;99947.63;4989566;28;107195;-67
2021/08/04 07:54:10;;;;;;;7.43;4.50;;;;;;;17.87;76.68;99950.25;4989424;28;105954;-65
2021/08/04 07:56:36;;;;;;;7.43;4.28;;;;;;;18.04;76.47;99941.59;4988891;28;105940;-66
2021/08/04 07:59:04;;;;;;;6.75;3.90;;;;;;;18.18;76.44;99943.09;4989121;28;106260;-66
2021/08/04 08:01:30;;;;;;;5.65;3.80;;;;;;;18.33;76.23;99944.53;4988325;28;106067;-66
2021/08/04 08:03:56;;;;;;;5.97;3.90;;;;;;;18.37;75.93;99934.94;4989169;28;106167;-65
2021/08/04 08:06:21;;;;;;;7.70;3.80;;;;;;;18.36;75.50;99946.81;4988776;28;105827;-67
2021/08/04 08:08:46;;;;;;;5.35;3.38;;;;;;;18.39;75.48;99949.03;4988594;28;105879;-69
2021/08/04 08:11:12;;;;;;;6.65;3.80;;;;;;;18.49;75.45;99952.00;4989681;28;105834;-70
2021/08/04 08:13:37;;;;;;;4.07;3.15;;;;;;;18.55;74.60;99951.09;4989144;28;106203;-68
2021/08/04 08:16:03;;;;;;;4.93;3.55;;;;;;;18.61;74.25;99958.25;4987234;28;108066;-68
2021/08/04 08:18:29;;;;;;;4.88;3.10;;;;;;;18.64;74.79;99950.78;4988275;28;106117;-68
2021/08/04 08:20:54;;;;;;;4.78;3.13;;;;;;;18.74;75.05;99948.34;4989611;28;106115;-68
2021/08/04 08:23:20;;;;;;;7.32;3.00;;;;;;;18.98;74.80;99951.16;4988303;28;106174;-69
2021/08/04 08:25:45;;;;;;;5.40;3.22;;;;;;;19.09;73.44;99955.72;4988791;28;105969;-70
2021/08/04 08:28:11;;;;;;;4.57;2.90;;;;;;;19.20;73.34;99954.91;4987885;28;106035;-68
2021/08/04 08:30:37;;;;;;;4.43;2.70;;;;;;;19.27;73.06;99950.25;4988894;28;105910;-71
2021/08/04 08:33:03;;;;;;;4.47;2.78;;;;;;;19.49;73.20;99954.25;4988312;28;106259;-70
2021/08/04 08:35:30;;;;;;;4.03;2.70;;;;;;;19.84;72.63;99954.25;4988300;28;106671;-69
2021/08/04 08:37:56;;;;;;;4.40;2.75;;;;;;;20.09;72.39;99948.56;4987049;28;106155;-67
2021/08/04 08:40:21;;;;;;;3.25;2.22;;;;;;;20.34;70.83;99946.59;4988953;28;106048;-66
2021/08/04 08:42:47;;;;;;;3.38;2.13;;;;;;;20.50;70.20;99951.22;4988393;28;106112;-70
2021/08/04 08:45:13;;;;;;;3.20;2.03;;;;;;;20.62;69.78;99943.88;4987817;28;106051;-72
2021/08/04 08:47:43;;;;;;;2.70;1.83;;;;;;;20.86;69.18;99943.81;4987653;28;106366;-68
2021/08/04 08:50:10;;;;;;;3.35;1.85;;;;;;;21.14;68.86;99944.78;4988327;28;105823;-68
2021/08/04 08:52:35;;;;;;;2.78;1.77;;;;;;;21.42;68.26;99945.75;4987753;28;106127;-67
2021/08/04 08:55:03;;;;;;;2.75;1.55;;;;;;;21.76;66.24;99949.28;4987458;28;105901;-65
2021/08/04 08:57:28;;;;;;;2.67;1.33;;;;;;;21.98;66.13;99954.72;4986931;28;106074;-69
2021/08/04 08:59:57;;;;;;;5.25;1.67;;;;;;;22.26;65.35;99946.63;4986296;28;106420;-68
2021/08/04 09:02:24;;;;;;;2.90;1.40;;;;;;;22.45;64.20;99947.13;4981239;28;106336;-60
2021/08/04 09:05:19;;;;;;;4.15;1.30;;;;;;;22.46;63.18;99940.66;4965974;28;106316;-60
2021/08/04 09:07:46;;;;;;;4.65;1.67;;;;;;;22.54;62.97;99940.19;4959918;28;106332;-64
2021/08/04 09:10:35;;;;;;;1.75;1.20;;;;;;;22.83;61.37;99942.63;4966480;28;106367;-64
2021/08/04 09:13:03;;;;;;;4.30;1.52;;;;;;;22.59;60.43;99953.78;4965650;28;106405;-65
2021/08/04 09:15:35;;;;;;;4.47;1.60;;;;;;;22.35;60.41;99947.00;4967465;28;105819;-67
2021/08/04 09:18:06;;;;;;;2.92;1.63;;;;;;;22.30;60.06;99954.00;4967653;28;106091;-65
2021/08/04 09:20:54;;;;;;;3.00;1.50;;;;;;;22.04;59.91;99946.63;4969785;28;105879;-64
2021/08/04 09:23:27;;;;;;;3.97;1.52;;;;;;;21.90;60.28;99947.00;4971187;28;106787;-65
2021/08/04 09:26:05;;;;;;;2.20;1.60;;;;;;;21.87;60.73;99936.69;4970975;28;106028;-66
2021/08/04 09:28:59;;;;;;;2.17;1.38;;;;;;;22.29;60.71;99938.81;4970748;28;106331;-65
2021/08/04 09:31:40;;;;;;;1.83;1.30;;;;;;;22.43;59.58;99941.97;4971991;28;105940;-65
2021/08/04 09:34:27;;;;;;;2.67;1.50;;;;;;;22.47;59.42;99944.97;4970594;28;106525;-63
2021/08/04 09:37:19;;;;;;;3.00;1.63;;;;;;;22.43;58.04;99946.56;4970901;28;107237;-63
2021/08/04 09:39:57;;;;;;;1.80;1.17;;;;;;;22.59;59.37;99934.78;4985399;28;105898;-63
2021/08/04 09:42:40;;;;;;;1.95;0.93;;;;;;;22.77;58.77;99933.63;4991693;28;105985;-63
2021/08/04 09:45:06;;;;;;;3.22;1.05;;;;;;;23.05;56.95;99939.81;4991039;28;105870;-63
2021/08/04 09:47:32;;;;;;;2.28;1.20;;;;;;;23.07;56.71;99923.25;4990364;28;107351;-63
2021/08/04 09:50:00;;;;;;;1.55;1.00;;;;;;;23.26;56.79;99924.50;4990403;28;106020;-63
2021/08/04 09:52:26;;;;;;;2.15;1.17;;;;;;;23.53;56.56;99920.88;4990697;28;106270;-63
2021/08/04 09:54:52;;;;;;;2.88;1.25;;;;;;;23.86;55.24;99918.88;4990603;28;106301;-64
2021/08/04 09:57:17;;;;;;;2.33;1.25;;;;;;;23.72;53.11;99926.69;4990724;28;106238;-64
2021/08/04 10:00:06;;;;;;;2.30;1.10;;;;;;;23.34;53.74;99916.97;4990129;28;106098;-63
2021/08/04 10:02:32;;;;;;;1.87;0.93;;;;;;;23.17;54.22;99915.22;4990937;28;106354;-63
2021/08/04 10:05:19;;;;;;;2.45;1.17;;;;;;;23.37;53.70;99919.16;4990363;28;106220;-63
2021/08/04 10:08:00;;;;;;;1.75;1.17;;;;;;;23.42;53.26;99916.47;4990021;28;106677;-63
2021/08/04 10:10:29;;;;;;;2.70;0.90;;;;;;;23.47;53.25;99911.88;4988594;28;106142;-64
2021/08/04 10:12:55;;;;;;;2.85;1.30;;;;;;;23.47;52.02;99924.69;4990686;28;106012;-64
2021/08/04 10:15:20;;;;;;;1.52;0.98;;;;;;;23.55;52.39;99915.19;4990186;28;106020;-64
2021/08/04 10:17:46;;;;;;;4.18;1.10;;;;;;;23.75;52.97;99911.75;4989591;28;106019;-63
2021/08/04 10:20:12;;;;;;;3.08;0.98;;;;;;;24.08;51.67;99912.47;4989520;28;105896;-63
2021/08/04 10:22:38;;;;;;;3.50;0.90;;;;;;;24.17;50.65;99902.72;4989584;28;106138;-64
2021/08/04 10:25:04;;;;;;;2.05;1.15;;;;;;;23.96;50.06;99910.81;4989861;28;106157;-61
2021/08/04 10:27:30;;;;;;;1.40;0.80;;;;;;;23.78;49.46;99903.91;4989126;28;105831;-61
2021/08/04 10:29:56;;;;;;;2.22;0.70;;;;;;;23.77;49.79;99906.84;4989841;28;105909;-61
2021/08/04 10:32:21;;;;;;;1.30;0.80;;;;;;;23.98;49.19;99905.91;4990257;28;106097;-61
2021/08/04 10:34:49;;;;;;;1.10;0.70;;;;;;;24.24;49.21;99903.25;4989666;28;106259;-62
2021/08/04 10:37:15;;;;;;;1.63;0.95;;;;;;;24.37;47.89;99904.63;4989402;28;107518;-60
2021/08/04 10:39:41;;;;;;;1.92;1.00;;;;;;;24.53;48.07;99899.25;4989369;28;106063;-61
2021/08/04 10:42:08;;;;;;;2.63;1.00;;;;;;;24.42;47.35;99901.13;4990250;28;106516;-61
2021/08/04 10:44:34;;;;;;;3.15;0.90;;;;;;;24.55;47.82;99900.59;4989873;28;105849;-61
2021/08/04 10:47:02;;;;;;;2.35;1.20;;;;;;;24.60;47.00;99897.88;4989582;28;105960;-61
2021/08/04 10:49:30;;;;;;;1.60;0.73;;;;;;;24.86;46.77;99894.38;4989267;28;106822;-62
2021/08/04 10:51:56;;;;;;;2.70;1.17;;;;;;;25.13;45.93;99897.63;4989997;28;106224;-62
2021/08/04 10:54:23;;;;;;;2.72;1.13;;;;;;;25.50;46.13;99890.22;4989624;28;106030;-62
2021/08/04 10:56:51;;;;;;;3.30;0.85;;;;;;;26.07;45.38;99896.31;4989427;28;105833;-61
2021/08/04 10:59:23;;;;;;;1.73;1.23;;;;;;;26.33;44.61;99893.44;4989235;28;106132;-63
2021/08/04 11:01:50;;;;;;;1.52;0.70;;;;;;;26.54;43.17;99899.56;4990072;28;105822;-62
2021/08/04 11:04:39;;;;;;;1.83;0.80;;;;;;;27.08;43.59;99886.88;4989435;28;106316;-61
2021/08/04 11:07:07;;;;;;;1.10;0.77;;;;;;;27.87;42.47;99888.47;4988837;28;105935;-62
2021/08/04 11:09:39;;;;;;;2.97;0.90;;;;;;;28.09;40.32;99896.16;4988691;28;105833;-62
2021/08/04 11:12:21;;;;;;;1.60;1.15;;;;;;;28.19;40.13;99897.94;4990441;28;105837;-63
2021/08/04 11:14:51;;;;;;;5.07;0.85;;;;;;;28.67;39.97;99891.50;4988169;28;106041;-62
2021/08/04 11:17:20;;;;;;;1.08;0.80;;;;;;;29.04;38.04;99889.78;4988822;28;106087;-62
2021/08/04 11:19:58;;;;;;;2.33;0.65;;;;;;;29.19;37.82;99884.00;4988429;28;106178;-62
2021/08/04 11:22:25;;;;;;;1.42;0.75;;;;;;;29.62;37.70;99877.47;4989817;28;106304;-62
2021/08/04 11:24:55;;;;;;;0.93;0.80;;;;;;;30.05;36.56;99877.13;4988798;28;106200;-62
2021/08/04 11:27:26;;;;;;;1.00;0.70;;;;;;;29.79;35.94;99881.53;4988330;28;106764;-62
2021/08/04 11:29:54;;;;;;;4.15;1.30;;;;;;;29.66;36.13;99881.22;4988601;28;105968;-63
2021/08/04 11:32:24;;;;;;;1.17;0.90;;;;;;;29.65;36.12;99887.81;4989509;28;105839;-62
2021/08/04 11:34:51;;;;;;;2.25;0.90;;;;;;;29.31;36.33;99889.03;4988723;28;106136;-63
2021/08/04 11:37:17;;;;;;;1.25;0.90;;;;;;;28.75;36.21;99876.31;4988966;28;106333;-66
2021/08/04 11:39:54;;;;;;;1.15;0.63;;;;;;;28.20;36.71;99878.47;4988113;28;106081;-64
2021/08/04 11:42:21;;;;;;;1.98;0.90;;;;;;;27.71;37.78;99887.84;4988971;28;105887;-65
2021/08/04 11:44:47;;;;;;;0.80;0.75;;;;;;;27.78;38.05;99882.84;4988033;28;106128;-65
2021/08/04 11:47:13;;;;;;;1.33;0.70;;;;;;;27.83;37.97;99890.16;4988744;28;107092;-64
2021/08/04 11:49:40;;;;;;;2.22;1.00;;;;;;;27.55;38.01;99879.00;4988605;28;106306;-64
2021/08/04 11:52:08;;;;;;;1.60;0.98;;;;;;;27.39;37.71;99880.28;4989093;28;106088;-64
2021/08/04 11:54:37;;;;;;;2.20;0.70;;;;;;;27.17;38.11;99878.84;4988570;28;106196;-63
2021/08/04 11:57:06;;;;;;;1.27;0.77;;;;;;;26.95;38.13;99877.41;4988452;28;106065;-63
2021/08/04 11:59:41;;;;;;;1.13;0.70;;;;;;;26.78;38.72;99877.03;4988529;28;105927;-64
2021/08/04 12:02:07;;;;;;;2.83;0.80;;;;;;;26.69;38.89;99884.97;4989340;28;106130;-64
2021/08/04 12:04:42;;;;;;;1.40;0.90;;;;;;;26.51;39.38;99883.75;4987926;28;106144;-64
2021/08/04 12:07:08;;;;;;;3.28;0.90;;;;;;;26.42;39.58;99874.53;4988217;28;106270;-64
2021/08/04 12:09:38;;;;;;;3.83;0.80;;;;;;;26.10;39.58;99881.28;4987402;28;106014;-68
2021/08/04 12:12:10;;;;;;;1.60;0.80;;;;;;;25.39;40.04;99875.81;4988821;28;106079;-69
2021/08/04 12:14:36;;;;;;;1.63;0.73;;;;;;;24.83;41.24;99871.22;4988683;28;105809;-63
2021/08/04 12:17:03;;;;;;;1.05;0.70;;;;;;;24.56;41.99;99885.06;4987661;28;105896;-63
2021/08/04 12:19:30;;;;;;;1.02;0.70;;;;;;;24.25;42.76;99879.56;4988166;28;106039;-62
2021/08/04 12:21:56;;;;;;;1.10;0.65;;;;;;;23.99;42.90;99874.09;4988934;28;106094;-62
2021/08/04 12:24:21;;;;;;;0.73;0.52;;;;;;;23.76;43.36;99872.59;4988222;28;106293;-64
2021/08/04 12:26:48;;;;;;;1.10;0.88;;;;;;;23.64;43.96;99879.06;4988005;28;105960;-63
2021/08/04 12:29:23;;;;;;;2.00;1.10;;;;;;;23.59;44.12;99872.78;4987682;28;105814;-62
2021/08/04 12:32:08;;;;;;;1.80;0.80;;;;;;;23.61;44.22;99860.56;4987057;28;105659;-63
2021/08/04 12:34:44;;;;;;;2.38;1.10;;;;;;;23.60;44.53;99863.56;4986597;28;106182;-63
2021/08/04 12:37:11;;;;;;;2.20;0.73;;;;;;;23.75;44.94;99860.09;4987336;28;106745;-63
2021/08/04 12:39:37;;;;;;;1.90;1.00;;;;;;;23.94;44.68;99863.19;4987700;28;105912;-64
2021/08/04 12:42:02;;;;;;;3.05;1.00;;;;;;;23.87;44.75;99863.41;4987307;28;105904;-63
2021/08/04 12:44:28;;;;;;;1.05;0.80;;;;;;;23.91;45.13;99861.81;4987762;28;106712;-63
2021/08/04 12:46:54;;;;;;;1.20;0.90;;;;;;;24.20;45.04;99858.63;4988121;28;106257;-63
2021/08/04 12:49:23;;;;;;;1.45;0.88;;;;;;;24.54;45.21;99860.84;4987836;28;105926;-63
2021/08/04 12:51:58;;;;;;;1.95;1.10;;;;;;;24.95;45.15;99862.78;4988728;28;106215;-62
2021/08/04 12:54:31;;;;;;;1.50;0.98;;;;;;;25.42;45.33;99855.34;4988055;28;105916;-63
2021/08/04 12:56:57;;;;;;;2.67;1.20;;;;;;;25.93;45.06;99857.88;4991055;28;105881;-62
2021/08/04 12:59:24;;;;;;;1.27;1.13;;;;;;;26.31;44.91;99855.50;4990764;28;105861;-62
2021/08/04 13:02:10;;;;;;;1.92;1.10;;;;;;;26.83;44.76;99855.09;4992312;28;105903;-62
2021/08/04 13:04:36;;;;;;;2.78;1.00;;;;;;;27.21;43.86;99852.56;4990374;28;106770;-62
2021/08/04 13:07:03;;;;;;;2.70;1.20;;;;;;;27.41;43.92;99854.28;4991126;28;107540;-63
2021/08/04 13:09:50;;;;;;;2.15;1.30;;;;;;;27.70;43.36;99845.97;4990915;28;106061;-63
2021/08/04 13:12:22;;;;;;;3.17;1.30;;;;;;;28.18;43.07;99844.28;4991580;28;106043;-63
2021/08/04 13:14:57;;;;;;;2.90;1.10;;;;;;;28.60;42.54;99842.53;4991061;28;106178;-63
2021/08/04 13:17:23;;;;;;;1.67;0.98;;;;;;;28.74;41.86;99839.84;4991172;28;106913;-62
2021/08/04 13:19:49;;;;;;;1.70;1.00;;;;;;;28.87;41.48;99836.34;4990011;28;107015;-63
2021/08/04 13:22:14;;;;;;;1.67;1.20;;;;;;;29.10;41.70;99841.13;4991812;28;105901;-63
2021/08/04 13:24:39;;;;;;;2.47;1.20;;;;;;;29.24;41.02;99841.97;4991195;28;107214;-64
2021/08/04 13:27:27;;;;;;;1.55;0.90;;;;;;;29.15;40.48;99838.31;4992486;28;106394;-64
2021/08/04 13:29:53;;;;;;;2.42;1.10;;;;;;;29.11;40.23;99829.06;5005242;28;105906;-64
2021/08/04 13:32:27;;;;;;;3.00;0.95;;;;;;;28.50;39.43;99829.81;4993540;28;107430;-64
2021/08/04 13:34:52;;;;;;;1.77;0.80;;;;;;;28.27;40.18;99830.72;4990861;28;106573;-63
2021/08/04 13:37:18;;;;;;;1.38;0.75;;;;;;;27.72;39.27;99833.94;4995170;28;107729;-64
2021/08/04 13:39:43;;;;;;;1.73;0.90;;;;;;;27.24;40.39;99832.00;4998930;28;108111;-64
2021/08/04 13:42:08;;;;;;;1.98;0.95;;;;;;;27.36;40.32;99832.47;5005077;28;105890;-64
2021/08/04 13:44:34;;;;;;;2.88;1.10;;;;;;;27.47;40.56;99828.47;5008455;28;106202;-63
2021/08/04 13:46:59;;;;;;;1.48;0.80;;;;;;;27.42;38.77;99834.03;4990791;28;106674;-63
2021/08/04 13:49:24;;;;;;;1.05;0.63;;;;;;;26.87;39.08;99841.69;4990688;28;117136;-62
2021/08/04 13:51:50;;;;;;;1.80;1.00;;;;;;;26.41;39.11;99827.28;4998515;28;106022;-62
2021/08/04 13:54:15;;;;;;;2.85;1.67;;;;;;;26.18;39.99;99831.56;5005640;28;105943;-66
2021/08/04 13:56:41;;;;;;;1.17;0.70;;;;;;;25.92;39.12;99826.22;4993584;28;105839;-63
2021/08/04 13:59:07;;;;;;;2.05;0.77;;;;;;;25.67;39.87;99827.16;5004772;28;105949;-63
2021/08/04 14:01:32;;;;;;;0.73;0.60;;;;;;;25.64;39.90;99825.81;4999890;28;106594;-63
2021/08/04 14:03:57;;;;;;;0.75;0.60;;;;;;;25.63;39.56;99820.63;4997621;28;105893;-62
2021/08/04 14:06:25;;;;;;;3.17;0.82;;;;;;;25.50;39.61;99830.22;4990851;28;108848;-63
2021/08/04 14:08:50;;;;;;;1.65;0.60;;;;;;;25.44;39.88;99824.00;4992834;28;105866;-63
2021/08/04 14:11:15;;;;;;;0.77;0.70;;;;;;;25.33;39.30;99825.94;4992019;28;105958;-62
2021/08/04 14:13:41;;;;;;;2.45;0.65;;;;;;;25.21;39.75;99828.13;4989145;28;106227;-63
2021/08/04 14:16:06;;;;;;;2.10;0.80;;;;;;;25.30;40.03;99826.47;4989668;28;105989;-63
2021/08/04 14:18:33;;;;;;;0.88;0.60;;;;;;;25.30;40.00;99831.09;4986455;28;106208;-62
2021/08/04 14:20:59;;;;;;;1.27;0.60;;;;;;;25.15;39.83;99823.75;4988572;28;106766;-63
2021/08/04 14:23:24;;;;;;;0.73;0.45;;;;;;;24.94;39.64;99828.44;4988225;28;106233;-63
2021/08/04 14:25:49;;;;;;;1.08;0.55;;;;;;;24.90;40.03;99836.34;4988198;28;106667;-62
2021/08/04 14:28:15;;;;;;;1.40;0.50;;;;;;;24.92;39.87;99823.28;4988302;28;106573;-62
2021/08/04 14:30:40;;;;;;;3.75;0.63;;;;;;;25.06;40.46;99833.63;4988269;28;106110;-62
2021/08/04 14:33:05;;;;;;;0.98;0.60;;;;;;;25.29;39.26;99838.44;4987741;28;105955;-62
2021/08/04 14:35:31;;;;;;;1.23;0.70;;;;;;;25.36;39.12;99831.91;4987896;28;106651;-62
2021/08/04 14:37:56;;;;;;;0.65;0.50;;;;;;;25.49;38.95;99828.59;4987212;28;106074;-65
2021/08/04 14:40:22;;;;;;;0.98;0.60;;;;;;;25.76;39.00;99824.66;4988438;28;107007;-64
2021/08/04 14:42:47;;;;;;;0.98;0.68;;;;;;;25.85;38.21;99828.44;4985106;28;106578;-65
2021/08/04 14:45:13;;;;;;;0.65;0.60;;;;;;;25.73;38.31;99819.78;4984139;28;106542;-63
2021/08/04 14:47:39;;;;;;;1.38;0.63;;;;;;;25.68;38.58;99816.00;4988880;28;106066;-65
2021/08/04 14:50:05;;;;;;;0.70;0.60;;;;;;;25.83;38.63;99806.91;4989630;28;105990;-65
2021/08/04 14:52:31;;;;;;;0.70;0.60;;;;;;;25.82;38.59;99818.06;4987751;28;106182;-66
2021/08/04 14:54:56;;;;;;;1.55;0.70;;;;;;;25.74;38.82;99810.47;4988976;28;106753;-66
2021/08/04 14:57:21;;;;;;;0.90;0.60;;;;;;;25.57;38.38;99811.66;4988519;28;105974;-64
2021/08/04 14:59:47;;;;;;;1.63;0.80;;;;;;;25.36;38.94;99810.09;4989971;28;106032;-66
2021/08/04 15:02:12;;;;;;;1.58;0.70;;;;;;;25.26;39.40;99809.03;4989286;28;106241;-63
2021/08/04 15:04:38;;;;;;;2.70;0.80;;;;;;;25.23;39.11;99804.09;4988606;28;106610;-63
2021/08/04 15:07:04;;;;;;;1.30;0.80;;;;;;;25.17;39.24;99813.41;4988789;28;105828;-64
2021/08/04 15:09:30;;;;;;;0.93;0.70;;;;;;;25.02;39.60;99808.81;4989785;28;106598;-63
2021/08/04 15:11:55;;;;;;;1.33;0.80;;;;;;;24.99;39.86;99809.38;4989103;28;106138;-63
2021/08/04 15:14:21;;;;;;;2.53;1.15;;;;;;;25.02;40.10;99810.72;4987665;28;106924;-63
2021/08/04 15:16:46;;;;;;;1.23;0.60;;;;;;;24.93;39.77;99805.84;4988522;28;106369;-63
2021/08/04 15:19:11;;;;;;;1.15;0.60;;;;;;;24.77;40.16;99810.50;4986466;28;106119;-65
2021/08/04 15:21:37;;;;;;;2.67;0.80;;;;;;;24.67;40.58;99813.22;4988741;28;106357;-64
2021/08/04 15:24:03;;;;;;;1.75;0.77;;;;;;;24.60;40.66;99808.00;4988777;28;105840;-63
2021/08/04 15:26:28;;;;;;;1.30;0.80;;;;;;;24.54;40.90;99806.38;4985435;28;105976;-63
2021/08/04 15:28:54;;;;;;;2.15;0.60;;;;;;;24.31;40.71;99807.75;4989450;28;106574;-63
2021/08/04 15:31:19;;;;;;;1.67;0.73;;;;;;;24.13;41.40;99799.00;4988747;28;106226;-65
2021/08/04 15:33:45;;;;;;;2.17;0.80;;;;;;;23.97;41.69;99809.03;4987438;28;106363;-63
2021/08/04 15:36:11;;;;;;;1.20;0.70;;;;;;;23.86;42.06;99806.56;4988415;28;105933;-63
2021/08/04 15:38:40;;;;;;;1.33;0.80;;;;;;;23.82;42.16;99806.25;4989174;28;105895;-63
2021/08/04 15:41:05;;;;;;;0.82;0.70;;;;;;;23.60;42.14;99809.19;4988770;28;106300;-64
2021/08/04 15:43:36;;;;;;;1.75;0.70;;;;;;;23.34;42.63;99800.91;4989212;28;106120;-64
2021/08/04 15:46:02;;;;;;;1.13;0.80;;;;;;;23.16;43.23;99802.19;4996402;28;106098;-63
2021/08/04 15:48:32;;;;;;;0.93;0.80;;;;;;;23.05;43.79;99797.75;5002418;28;106224;-63
2021/08/04 15:51:00;;;;;;;;;;;;;;;22.96;43.90;99800.13;4987495;28;106259;-64
2021/08/04 15:53:26;;;;;;;1.20;0.90;;;;;;;22.85;44.30;99793.81;4988019;28;106138;-64
2021/08/04 15:55:52;;;;;;;1.10;0.80;;;;;;;22.81;44.67;99798.13;4988258;28;105930;-65
2021/08/04 15:58:17;;;;;;;1.58;1.00;;;;;;;22.65;44.77;99786.38;4988875;28;107412;-63
2021/08/04 16:00:43;;;;;;;2.97;1.63;;;;;;;22.52;44.94;99787.59;4988561;28;105895;-64